createdAt,value
2023-02-17T00:09:11.859Z,1.63
2023-02-17T00:19:25.809Z,1.45
2023-02-17T00:29:27.301Z,1.60
2023-02-17T00:39:28.831Z,1.35
2023-02-17T00:49:30.415Z,1.33
2023-02-17T00:59:32.450Z,1.40
2023-02-17T01:09:34.419Z,1.55
2023-02-17T01:19:35.951Z,1.60
2023-02-17T01:29:37.449Z,1.48
2023-02-17T01:39:39.282Z,1.55
2023-02-17T01:49:41.627Z,1.42
2023-02-17T01:59:43.615Z,1.63
2023-02-17T02:09:54.324Z,1.80
2023-02-17T02:20:20.833Z,1.55
2023-02-17T02:30:36.604Z,1.80
2023-02-17T02:40:42.994Z,1.80
2023-02-17T02:50:59.054Z,1.60
2023-02-17T03:01:14.272Z,1.70
2023-02-17T03:11:32.111Z,1.90
2023-02-17T03:21:48.072Z,2.17
2023-02-17T03:31:49.924Z,2.30
2023-02-17T03:41:52.343Z,2.05
2023-02-17T03:51:53.862Z,2.38
2023-02-17T04:01:55.637Z,2.22
2023-02-17T04:11:57.164Z,2.53
2023-02-17T04:21:58.727Z,2.35
2023-02-17T04:32:00.356Z,2.30
2023-02-17T04:42:01.881Z,2.10
2023-02-17T04:52:03.468Z,2.40
2023-02-17T05:02:05.133Z,2.22
2023-02-17T05:12:07.550Z,2.20
2023-02-17T05:22:09.160Z,2.35
2023-02-17T05:32:10.710Z,2.55
2023-02-17T05:42:12.425Z,2.60
2023-02-17T05:52:14.003Z,2.35
2023-02-17T06:02:15.463Z,2.70
2023-02-17T06:12:16.948Z,2.88
2023-02-17T06:22:18.769Z,2.35
2023-02-17T06:32:20.283Z,2.65
2023-02-17T06:42:21.777Z,2.35
2023-02-17T06:52:23.260Z,3.22
2023-02-17T07:02:25.067Z,2.92
2023-02-17T07:12:28.788Z,2.67
2023-02-17T07:22:30.330Z,2.85
2023-02-17T07:32:31.837Z,2.65
2023-02-17T07:42:33.540Z,2.80
2023-02-17T07:52:35.114Z,2.70
2023-02-17T08:02:36.567Z,3.20
2023-02-17T08:12:57.551Z,3.90
2023-02-17T08:23:01.886Z,4.40
2023-02-17T08:33:05.122Z,3.38
2023-02-17T08:43:09.838Z,2.88
2023-02-17T08:53:11.360Z,2.85
2023-02-17T09:03:13.135Z,2.60
2023-02-17T09:13:16.309Z,3.10
2023-02-17T09:23:22.185Z,2.08
2023-02-17T09:33:25.237Z,1.65
2023-02-17T09:43:29.504Z,2.43
2023-02-17T09:53:37.404Z,1.90
2023-02-17T10:03:43.597Z,1.90
2023-02-17T10:13:45.903Z,1.73
2023-02-17T10:23:49.352Z,1.63
2023-02-17T10:34:15.390Z,1.33
2023-02-17T10:44:21.667Z,1.52
2023-02-17T10:54:33.014Z,1.33
2023-02-17T11:04:42.453Z,1.30
2023-02-17T11:14:49.209Z,1.15
2023-02-17T11:25:01.970Z,1.30
2023-02-17T11:35:06.280Z,1.23
2023-02-17T11:45:18.767Z,1.13
2023-02-17T11:55:26.988Z,1.40
2023-02-17T12:05:56.306Z,1.20
2023-02-17T12:16:07.114Z,1.33
2023-02-17T12:26:32.571Z,1.13
2023-02-17T12:36:36.643Z,1.13
2023-02-17T12:46:46.510Z,0.93
2023-02-17T12:57:06.107Z,0.90
2023-02-17T13:07:26.534Z,0.93
2023-02-17T13:17:39.391Z,0.50
2023-02-17T13:27:41.465Z,1.20
2023-02-17T13:37:45.078Z,0.90
2023-02-17T13:47:47.925Z,0.75
2023-02-17T13:57:53.412Z,0.93
2023-02-17T14:08:01.099Z,0.70
2023-02-17T14:18:14.250Z,0.90
2023-02-17T14:28:20.755Z,0.90
2023-02-17T14:38:25.351Z,0.90
2023-02-17T14:48:27.989Z,0.82
2023-02-17T14:58:30.475Z,0.80
2023-02-17T15:08:35.688Z,0.68
2023-02-17T15:18:37.253Z,0.70
2023-02-17T15:28:38.752Z,0.70
2023-02-17T15:38:41.228Z,0.73
2023-02-17T15:48:43.914Z,0.80
2023-02-17T15:58:45.879Z,1.30
2023-02-17T16:08:47.556Z,0.60
2023-02-17T16:18:49.532Z,0.70
2023-02-17T16:28:51.133Z,0.50
2023-02-17T16:38:52.671Z,0.68
2023-02-17T16:48:54.132Z,0.70
2023-02-17T16:58:55.907Z,0.55
2023-02-17T17:08:57.676Z,0.70
2023-02-17T17:18:59.269Z,0.90
2023-02-17T17:29:00.801Z,0.65
2023-02-17T17:39:05.068Z,0.60
2023-02-17T17:49:10.151Z,0.67
2023-02-17T17:59:13.079Z,0.65
2023-02-17T18:09:30.729Z,0.43
2023-02-17T18:19:33.228Z,0.50
2023-02-17T18:29:34.801Z,0.50
2023-02-17T18:39:36.309Z,0.60
2023-02-17T18:49:37.786Z,0.50
2023-02-17T18:59:39.286Z,0.70
2023-02-17T19:09:44.692Z,0.60
2023-02-17T19:19:46.314Z,0.60
2023-02-17T19:29:47.827Z,0.55
2023-02-17T19:39:49.354Z,0.40
2023-02-17T19:49:50.923Z,0.50
2023-02-17T19:59:52.396Z,0.60
2023-02-17T20:09:53.933Z,0.68
2023-02-17T20:19:55.673Z,0.50
2023-02-17T20:29:59.468Z,0.50
2023-02-17T20:40:03.322Z,0.40
2023-02-17T20:50:09.310Z,0.57
2023-02-17T21:00:17.700Z,0.60
2023-02-17T21:10:21.957Z,0.30
2023-02-17T21:20:23.869Z,0.30
2023-02-17T21:30:25.650Z,0.40
2023-02-17T21:40:27.206Z,0.43
2023-02-17T21:50:28.755Z,0.70
2023-02-17T22:00:30.261Z,0.77
2023-02-17T22:10:37.127Z,0.50
2023-02-17T22:20:43.220Z,0.40
2023-02-17T22:30:51.011Z,0.43
2023-02-17T22:40:52.491Z,0.57
2023-02-17T22:50:54.180Z,0.65
2023-02-17T23:01:11.238Z,0.40
2023-02-17T23:11:14.790Z,0.40
2023-02-17T23:21:16.437Z,0.32
2023-02-17T23:31:18.193Z,0.40
2023-02-17T23:41:19.727Z,0.22
2023-02-17T23:51:21.607Z,0.30
